Time;durP1;ratioP1;P1;durP2;ratioP2;P2;SDS_P1;SDS_P2;PMS_P1;PMS_P2;Temp;Humidity;BMP_temperature;BMP_pressure;BME280_temperature;BME280_humidity;BME280_pressure;Samples;Min_cycle;Max_cycle;Signal;HPM_P1;HPM_P2
2022/02/03 00:01:12;;;;;;;10.00;1.97;;;1.50;99.90;;;;;;4127302;28;20810;-80
2022/02/03 00:03:19;;;;;;;10.80;2.23;;;1.50;99.90;;;;;;4134640;28;20491;-80
2022/02/03 00:05:30;;;;;;;6.10;1.97;;;1.40;99.90;;;;;;4135737;28;20476;-78
2022/02/03 00:07:40;;;;;;;6.53;1.57;;;1.70;99.90;;;;;;4136141;28;20444;-79
2022/02/03 00:17:01;;;;;;;7.80;2.00;;;1.40;99.90;;;;;;4134694;28;20513;-78
2022/02/03 00:26:06;;;;;;;10.27;2.37;;;1.30;99.90;;;;;;4135196;28;20450;-80
2022/02/03 00:28:21;;;;;;;7.37;2.00;;;1.30;99.90;;;;;;4137471;28;20533;-80
2022/02/03 00:30:33;;;;;;;8.10;2.50;;;1.30;99.90;;;;;;4139900;28;20887;-80
2022/02/03 00:35:21;;;;;;;12.17;2.10;;;1.30;99.90;;;;;;4145032;28;21014;-79
2022/02/03 00:37:43;;;;;;;9.57;2.00;;;1.30;99.90;;;;;;4131276;28;20506;-79
2022/02/03 00:49:11;;;;;;;6.93;1.60;;;1.20;99.90;;;;;;4133233;28;20958;-79
2022/02/03 00:51:13;;;;;;;6.13;1.60;;;1.20;99.90;;;;;;4132945;28;20509;-80
2022/02/03 00:53:15;;;;;;;6.27;1.47;;;1.20;99.90;;;;;;4118445;28;20463;-79
2022/02/03 00:55:17;;;;;;;9.23;1.77;;;1.20;99.90;;;;;;4119137;28;20495;-80
2022/02/03 00:57:28;;;;;;;8.03;1.53;;;1.20;99.90;;;;;;4128093;28;20470;-79
2022/02/03 00:59:36;;;;;;;3.30;1.10;;;1.20;99.90;;;;;;4131545;28;20574;-79
2022/02/03 01:01:41;;;;;;;4.03;1.47;;;1.20;99.90;;;;;;4134426;28;20515;-80
2022/02/03 01:03:44;;;;;;;4.37;1.13;;;1.20;99.90;;;;;;4134306;28;20484;-79
2022/02/03 01:05:48;;;;;;;9.40;1.43;;;1.20;99.90;;;;;;4134906;28;20458;-80
2022/02/03 01:07:51;;;;;;;8.27;1.80;;;1.20;99.90;;;;;;4123243;28;20848;-79
2022/02/03 01:10:03;;;;;;;9.63;1.87;;;1.20;99.90;;;;;;4131369;28;20494;-79
2022/02/03 01:12:14;;;;;;;5.57;1.57;;;1.20;99.90;;;;;;4131862;28;20477;-79
2022/02/03 01:14:21;;;;;;;7.23;1.70;;;1.20;99.90;;;;;;4136264;28;20507;-80
2022/02/03 01:16:39;;;;;;;4.40;1.33;;;1.20;99.90;;;;;;4126332;28;20561;-79
2022/02/03 01:21:36;;;;;;;11.33;2.00;;;1.20;99.90;;;;;;4264777;27;20576;-80
2022/02/03 01:43:12;;;;;;;10.07;1.47;;;1.20;99.90;;;;;;4250206;27;20496;-80
2022/02/03 01:45:02;;;;;;;6.10;1.53;;;1.10;99.90;;;;;;4256303;27;20466;-79
2022/02/03 01:47:11;;;;;;;7.27;1.50;;;1.30;99.90;;;;;;4252520;27;20455;-78
2022/02/03 01:49:17;;;;;;;9.57;1.60;;;0.70;99.90;;;;;;4244290;27;20857;-79
2022/02/03 01:51:42;;;;;;;11.27;2.33;;;1.10;99.90;;;;;;4247388;28;20460;-79
2022/02/03 01:53:46;;;;;;;11.77;1.83;;;2.00;99.90;;;;;;4248150;27;20506;-78
2022/02/03 01:55:54;;;;;;;8.73;1.40;;;1.10;99.90;;;;;;4240946;28;20484;-78
2022/02/03 01:58:02;;;;;;;5.47;1.37;;;1.10;99.90;;;;;;4247962;27;20953;-78
2022/02/03 02:00:08;;;;;;;8.57;1.77;;;1.10;99.90;;;;;;4246589;27;20531;-78
2022/02/03 02:02:10;;;;;;;5.77;1.40;;;1.10;99.90;;;;;;4246353;27;21009;-78
2022/02/03 02:04:16;;;;;;;7.43;1.73;;;1.10;99.90;;;;;;4246651;27;20528;-79
2022/02/03 02:06:42;;;;;;;9.03;2.13;;;1.10;99.90;;;;;;4246880;28;20497;-79
2022/02/03 02:08:56;;;;;;;10.73;1.70;;;1.10;99.90;;;;;;4255205;27;21118;-79
2022/02/03 02:11:25;;;;;;;9.53;1.70;;;1.10;99.90;;;;;;4254305;27;20855;-79
2022/02/03 02:13:49;;;;;;;7.53;1.33;;;1.10;99.90;;;;;;4239373;27;20493;-78
2022/02/03 02:16:05;;;;;;;11.67;1.93;;;1.10;99.90;;;;;;4247708;28;20486;-78
2022/02/03 02:18:47;;;;;;;7.77;2.27;;;1.10;99.90;;;;;;4254881;27;20448;-77
2022/02/03 02:38:08;;;;;;;8.20;2.20;;;1.20;99.90;;;;;;4231165;28;20892;-77
2022/02/03 02:40:48;;;;;;;5.40;1.93;;;1.30;99.90;;;;;;4231375;27;20924;-77
2022/02/03 02:43:02;;;;;;;9.10;1.47;;;1.30;99.90;;;;;;4227907;28;20484;-78
2022/02/03 02:45:06;;;;;;;4.67;1.70;;;1.30;99.90;;;;;;4238561;27;20544;-78
2022/02/03 02:47:16;;;;;;;4.17;1.30;;;1.30;99.90;;;;;;4231975;28;20459;-78
2022/02/03 02:49:27;;;;;;;4.50;1.43;;;1.50;99.90;;;;;;4220619;28;20879;-77
2022/02/03 02:51:39;;;;;;;9.40;1.70;;;1.30;99.90;;;;;;4231163;28;20552;-77
2022/02/03 02:54:05;;;;;;;7.57;1.90;;;1.30;99.90;;;;;;4225752;28;20464;-77
2022/02/03 02:56:20;;;;;;;9.63;2.53;;;1.70;99.90;;;;;;4230131;28;20460;-79
2022/02/03 02:59:04;;;;;;;11.63;2.23;;;1.40;99.90;;;;;;4223594;27;20515;-76
2022/02/03 03:34:38;;;;;;;8.10;2.13;;;1.40;99.90;;;;;;4187559;28;20558;-76
2022/02/03 03:36:43;;;;;;;6.37;1.50;;;1.40;99.90;;;;;;4190968;28;20858;-76
2022/02/03 03:38:49;;;;;;;7.30;1.30;;;1.40;99.90;;;;;;4193306;28;20523;-77
2022/02/03 03:40:54;;;;;;;6.53;1.80;;;1.40;99.90;;;;;;4180147;28;20459;-79
2022/02/03 03:43:02;;;;;;;7.27;1.60;;;1.30;99.90;;;;;;4186080;28;20495;-77
2022/02/03 03:45:08;;;;;;;11.77;2.20;;;1.30;99.90;;;;;;4192707;28;20900;-76
2022/02/03 03:47:15;;;;;;;7.60;1.63;;;1.30;99.90;;;;;;4193562;28;20454;-76
2022/02/03 03:49:33;;;;;;;14.10;2.67;;;1.30;99.90;;;;;;4191760;28;20475;-76
2022/02/03 03:51:43;;;;;;;7.20;1.70;;;1.30;99.90;;;;;;4192337;28;20524;-77
2022/02/03 03:54:00;;;;;;;5.40;1.60;;;1.30;99.90;;;;;;4193387;28;20496;-78
2022/02/03 03:56:08;;;;;;;4.63;1.40;;;1.30;99.90;;;;;;4192814;28;20491;-78
2022/02/03 04:00:56;;;;;;;4.63;1.33;;;1.30;99.90;;;;;;4167619;28;20489;-77
2022/02/03 04:32:42;;;;;;;4.57;1.80;;;1.40;99.90;;;;;;4170642;28;20506;-79
2022/02/03 04:40:27;;;;;;;8.90;2.60;;;1.50;99.90;;;;;;4187932;28;20513;-76
2022/02/03 04:43:20;;;;;;;14.03;3.43;;;1.40;99.90;;;;;;4176479;28;20494;-76
2022/02/03 04:46:17;;;;;;;11.50;3.17;;;1.40;99.90;;;;;;4180075;28;20467;-76
2022/02/03 04:56:36;;;;;;;12.57;2.57;;;1.50;99.90;;;;;;4178113;28;20474;-76
2022/02/03 04:59:21;;;;;;;10.77;2.00;;;1.50;99.90;;;;;;4176525;28;20505;-76
2022/02/03 05:02:02;;;;;;;9.80;2.33;;;1.50;99.90;;;;;;4181010;28;20586;-75
2022/02/03 05:04:29;;;;;;;8.70;1.67;;;1.50;99.90;;;;;;4174790;28;20464;-76
2022/02/03 05:06:56;;;;;;;9.27;2.13;;;1.60;99.90;;;;;;4174206;28;20454;-76
2022/02/03 05:09:25;;;;;;;5.47;1.70;;;1.60;99.90;;;;;;4181877;28;20464;-78
2022/02/03 05:12:01;;;;;;;8.30;1.80;;;1.60;99.90;;;;;;4180887;28;20528;-75
2022/02/03 05:14:36;;;;;;;7.70;2.07;;;1.60;99.90;;;;;;4177245;28;20835;-79
2022/02/03 05:17:07;;;;;;;11.93;2.07;;;1.60;99.90;;;;;;4180490;28;20878;-76
2022/02/03 05:19:50;;;;;;;12.90;3.93;;;1.70;99.90;;;;;;4181998;28;20459;-78
2022/02/03 05:22:47;;;;;;;8.73;3.03;;;1.70;99.90;;;;;;4164168;28;20477;-77
2022/02/03 05:25:21;;;;;;;9.23;2.60;;;1.70;99.90;;;;;;4175185;28;20862;-78
2022/02/03 05:33:25;;;;;;;6.73;1.73;;;1.80;99.90;;;;;;4177505;28;20479;-78
2022/02/03 05:50:31;;;;;;;4.17;1.50;;;1.90;99.90;;;;;;4163193;28;21043;-80
2022/02/03 05:52:57;;;;;;;11.67;2.20;;;1.90;99.90;;;;;;4181193;28;20523;-80
2022/02/03 05:55:26;;;;;;;13.70;2.40;;;2.00;99.90;;;;;;4178200;28;20518;-80
2022/02/03 06:04:49;;;;;;;7.27;1.60;;;2.10;99.90;;;;;;4177165;28;20444;-80
2022/02/03 06:09:21;;;;;;;6.20;2.17;;;2.20;99.90;;;;;;4166552;28;20442;-79
2022/02/03 06:13:50;;;;;;;6.67;1.90;;;2.20;99.90;;;;;;4183472;28;20516;-79
2022/02/03 06:16:06;;;;;;;9.80;1.90;;;2.30;99.90;;;;;;4178800;28;20464;-79
2022/02/03 06:20:43;;;;;;;10.03;2.13;;;2.30;99.90;;;;;;4179450;28;20432;-79
2022/02/03 06:22:50;;;;;;;4.83;1.60;;;2.30;99.90;;;;;;4180605;28;20480;-79
2022/02/03 06:27:24;;;;;;;8.37;1.70;;;2.40;99.90;;;;;;4183092;28;20512;-78
2022/02/03 06:27:26;;;;;;;8.67;1.63;;;2.40;99.90;;;;;;4180299;28;20498;-79
2022/02/03 06:29:33;;;;;;;10.50;1.80;;;2.40;99.90;;;;;;4178024;28;20472;-79
2022/02/03 06:31:36;;;;;;;7.90;2.40;;;2.40;99.90;;;;;;4179440;28;20495;-80
2022/02/03 06:33:38;;;;;;;9.47;1.93;;;2.40;99.90;;;;;;4179563;28;20575;-79
2022/02/03 06:35:40;;;;;;;5.53;1.77;;;2.40;99.90;;;;;;4180170;28;20483;-79
2022/02/03 06:37:41;;;;;;;6.07;1.83;;;2.40;99.90;;;;;;4181834;28;20456;-79
2022/02/03 06:39:43;;;;;;;7.87;1.67;;;2.50;99.90;;;;;;4175912;28;20981;-79
2022/02/03 06:41:49;;;;;;;5.47;2.03;;;2.60;99.90;;;;;;4182138;28;20886;-79
2022/02/03 06:43:51;;;;;;;11.43;2.43;;;2.50;99.90;;;;;;4177914;28;20499;-79
2022/02/03 06:46:00;;;;;;;6.33;1.70;;;2.50;99.90;;;;;;4179201;28;20488;-78
2022/02/03 06:48:06;;;;;;;3.60;1.53;;;2.50;99.90;;;;;;4182665;28;20449;-79
2022/02/03 06:50:16;;;;;;;11.60;1.67;;;2.50;99.90;;;;;;4182335;28;20461;-80
2022/02/03 06:52:23;;;;;;;5.93;1.50;;;2.50;99.90;;;;;;4175433;28;20554;-79
2022/02/03 06:54:33;;;;;;;4.03;1.67;;;2.60;99.90;;;;;;4180600;28;20494;-79
2022/02/03 06:56:39;;;;;;;10.47;2.00;;;2.60;99.90;;;;;;4176128;28;20479;-79
2022/02/03 06:58:46;;;;;;;9.20;1.70;;;2.60;99.90;;;;;;4184514;28;20464;-79
2022/02/03 07:00:58;;;;;;;9.27;2.07;;;2.60;99.90;;;;;;4185944;28;20485;-79
2022/02/03 07:03:03;;;;;;;5.83;1.80;;;2.60;99.90;;;;;;4187184;28;20492;-79
2022/02/03 07:05:06;;;;;;;11.73;3.40;;;2.60;99.90;;;;;;4187962;28;20449;-79
2022/02/03 07:07:08;;;;;;;15.03;3.80;;;2.70;99.90;;;;;;4188502;28;20468;-80
2022/02/03 07:09:11;;;;;;;8.23;2.50;;;3.10;99.90;;;;;;4181806;28;20475;-80
2022/02/03 07:11:17;;;;;;;6.37;1.93;;;2.70;99.90;;;;;;4183084;28;20579;-80
2022/02/03 07:13:19;;;;;;;5.83;1.87;;;2.70;99.90;;;;;;4181612;28;20531;-80
2022/02/03 07:15:23;;;;;;;7.50;1.93;;;3.00;99.90;;;;;;4179729;28;20449;-80
2022/02/03 07:17:24;;;;;;;8.00;2.17;;;2.70;99.90;;;;;;4173239;28;20530;-80
2022/02/03 07:19:27;;;;;;;10.07;1.83;;;2.80;99.90;;;;;;4174141;28;20472;-80
2022/02/03 07:21:29;;;;;;;5.83;1.70;;;2.80;99.90;;;;;;4172318;28;20464;-80
2022/02/03 07:23:31;;;;;;;7.83;2.00;;;2.80;99.90;;;;;;4174899;28;20856;-82
2022/02/03 07:25:33;;;;;;;3.97;1.70;;;2.80;99.90;;;;;;4174995;28;20461;-80
2022/02/03 07:27:35;;;;;;;6.57;2.40;;;2.90;99.90;;;;;;4174337;28;20524;-79
2022/02/03 07:29:37;;;;;;;11.37;1.80;;;2.80;99.90;;;;;;4172182;28;20465;-78
2022/02/03 07:31:38;;;;;;;8.17;1.83;;;2.90;99.90;;;;;;4175516;28;20488;-78
2022/02/03 07:33:41;;;;;;;5.23;1.80;;;2.90;99.90;;;;;;4175685;28;20484;-79
2022/02/03 07:35:45;;;;;;;5.63;1.90;;;2.90;99.90;;;;;;4174228;28;20672;-80
2022/02/03 07:37:48;;;;;;;6.73;2.07;;;2.90;99.90;;;;;;4175842;28;20488;-78
2022/02/03 07:39:50;;;;;;;10.07;2.43;;;2.90;99.90;;;;;;4172757;28;20477;-77
2022/02/03 07:41:56;;;;;;;7.63;2.27;;;2.90;99.90;;;;;;4172265;28;20468;-80
2022/02/03 07:44:02;;;;;;;8.43;2.70;;;3.00;99.90;;;;;;4174893;28;20468;-78
2022/02/03 07:46:04;;;;;;;10.50;2.50;;;3.00;99.90;;;;;;4174984;28;20473;-80
2022/02/03 07:48:06;;;;;;;9.00;2.80;;;3.00;99.90;;;;;;4174065;28;20507;-78
2022/02/03 07:50:08;;;;;;;8.80;2.90;;;3.00;99.90;;;;;;4173668;28;20460;-80
2022/02/03 07:52:12;;;;;;;7.77;2.10;;;3.00;99.90;;;;;;4173850;28;20484;-80
2022/02/03 07:54:16;;;;;;;10.23;2.77;;;3.10;99.90;;;;;;4175778;28;20453;-81
2022/02/03 07:56:23;;;;;;;9.13;2.83;;;3.10;99.90;;;;;;4176432;28;20965;-79
2022/02/03 07:58:25;;;;;;;7.07;2.37;;;3.10;99.90;;;;;;4173793;28;20468;-82
2022/02/03 08:00:27;;;;;;;13.33;2.57;;;3.20;99.90;;;;;;4171909;28;20505;-79
2022/02/03 08:02:28;;;;;;;7.13;2.10;;;3.20;99.90;;;;;;4175394;28;20581;-79
2022/02/03 08:04:33;;;;;;;8.23;2.47;;;3.20;99.90;;;;;;4175581;28;21025;-81
2022/02/03 08:06:40;;;;;;;12.43;2.87;;;3.20;99.90;;;;;;4175338;28;20465;-80
2022/02/03 08:08:46;;;;;;;10.47;3.10;;;3.20;99.90;;;;;;4177537;28;20456;-78
2022/02/03 08:10:50;;;;;;;8.33;3.13;;;3.20;99.90;;;;;;4166678;28;20528;-78
2022/02/03 08:12:52;;;;;;;8.50;2.77;;;3.80;99.90;;;;;;4174092;28;20496;-77
2022/02/03 08:14:55;;;;;;;8.50;2.80;;;3.30;99.90;;;;;;4175697;28;20475;-79
2022/02/03 08:17:01;;;;;;;6.97;3.00;;;3.30;99.90;;;;;;4174554;28;20465;-80
2022/02/03 08:19:08;;;;;;;9.27;3.40;;;3.40;99.90;;;;;;4176980;28;20460;-78
2022/02/03 08:21:12;;;;;;;10.17;3.40;;;3.30;99.90;;;;;;4175682;28;20644;-80
2022/02/03 08:23:42;;;;;;;12.73;3.50;;;3.90;99.90;;;;;;4186231;23;21044;-83
2022/02/03 08:25:51;;;;;;;12.33;3.53;;;3.50;99.90;;;;;;4165013;28;20462;-82
2022/02/03 08:28:27;;;;;;;17.40;4.20;;;3.50;99.90;;;;;;4165737;28;20565;-83
2022/02/03 08:30:38;;;;;;;7.73;3.50;;;3.60;99.90;;;;;;4166664;28;21145;-84
2022/02/03 08:32:45;;;;;;;8.93;3.33;;;3.60;99.90;;;;;;4162443;28;21009;-83
2022/02/03 08:35:08;;;;;;;11.77;3.30;;;3.70;99.90;;;;;;4160561;28;20492;-83
2022/02/03 08:37:09;;;;;;;8.90;3.10;;;3.70;99.90;;;;;;4166355;28;20928;-83
2022/02/03 08:39:12;;;;;;;13.07;3.87;;;3.90;99.90;;;;;;4168959;28;20482;-83
2022/02/03 08:41:15;;;;;;;15.80;3.80;;;3.70;99.90;;;;;;4166827;28;21089;-84
2022/02/03 08:43:17;;;;;;;14.20;3.77;;;3.70;99.90;;;;;;4166912;28;20884;-83
2022/02/03 08:45:19;;;;;;;12.80;3.70;;;3.80;99.90;;;;;;4168794;28;20454;-83
2022/02/03 08:47:21;;;;;;;14.87;4.20;;;3.80;99.90;;;;;;4167497;28;20454;-83
2022/02/03 08:49:23;;;;;;;14.03;4.10;;;3.80;99.90;;;;;;4165385;28;20938;-83
2022/02/03 08:51:25;;;;;;;9.27;3.90;;;3.80;99.90;;;;;;4166404;28;20499;-83
2022/02/03 08:53:31;;;;;;;11.57;4.07;;;3.90;99.90;;;;;;4164276;28;20492;-83
2022/02/03 08:55:41;;;;;;;15.07;4.37;;;3.90;99.90;;;;;;4165723;28;20491;-84
2022/02/03 08:58:02;;;;;;;13.87;4.77;;;3.90;99.90;;;;;;4164908;28;20462;-83
2022/02/03 09:00:35;;;;;;;21.50;3.87;;;3.90;99.90;;;;;;4162503;28;20854;-83
2022/02/03 09:38:00;;;;;;;12.70;5.50;;;4.40;99.90;;;;;;4162502;28;20981;-84
2022/02/03 09:50:17;;;;;;;13.03;5.37;;;4.50;99.90;;;;;;4152978;28;20447;-83
2022/02/03 09:57:07;;;;;;;15.33;6.03;;;4.80;99.90;;;;;;4165170;28;20437;-84
2022/02/03 09:59:12;;;;;;;21.03;6.07;;;4.90;99.90;;;;;;4162708;28;20517;-84
2022/02/03 10:01:24;;;;;;;14.57;5.90;;;5.00;99.90;;;;;;4166199;28;20474;-83
2022/02/03 10:03:35;;;;;;;16.87;5.93;;;5.10;99.90;;;;;;4165733;28;20489;-84
2022/02/03 10:05:40;;;;;;;18.03;5.90;;;5.10;99.90;;;;;;4164683;28;21323;-84
2022/02/03 10:07:52;;;;;;;11.90;5.20;;;5.10;99.90;;;;;;4164867;28;20454;-84
2022/02/03 10:09:55;;;;;;;12.53;5.10;;;5.30;99.90;;;;;;4164548;28;20696;-84
2022/02/03 10:12:00;;;;;;;17.63;5.43;;;5.30;99.90;;;;;;4165377;28;20492;-84
2022/02/03 10:14:04;;;;;;;13.17;5.80;;;5.40;99.90;;;;;;4162541;28;20570;-84
2022/02/03 10:16:07;;;;;;;14.63;5.90;;;5.40;99.90;;;;;;4165630;28;20949;-84
2022/02/03 10:18:21;;;;;;;17.13;6.00;;;5.50;99.90;;;;;;4159821;28;20553;-84
2022/02/03 10:20:28;;;;;;;14.70;5.73;;;5.50;99.90;;;;;;4161509;28;20507;-84
2022/02/03 10:22:30;;;;;;;19.17;5.77;;;5.60;99.90;;;;;;4163364;28;20575;-84
2022/02/03 10:24:36;;;;;;;13.10;5.97;;;5.60;99.90;;;;;;4160636;28;21013;-84
2022/02/03 10:26:40;;;;;;;12.40;5.87;;;5.70;99.90;;;;;;4162746;28;20476;-84
2022/02/03 10:28:51;;;;;;;13.63;5.57;;;5.70;99.90;;;;;;4170091;28;20475;-84
2022/02/03 10:30:59;;;;;;;12.27;5.23;;;5.70;99.90;;;;;;4163328;28;20916;-84
2022/02/03 10:33:01;;;;;;;15.33;5.43;;;5.80;99.90;;;;;;4167600;28;20538;-84
2022/02/03 10:35:15;;;;;;;15.03;5.37;;;5.80;99.90;;;;;;4165050;28;20960;-84
2022/02/03 10:37:39;;;;;;;17.33;6.23;;;5.90;99.90;;;;;;4164898;28;20545;-83
2022/02/03 10:42:19;;;;;;;14.93;5.63;;;6.00;99.90;;;;;;4160898;28;20563;-84
2022/02/03 10:44:55;;;;;;;13.03;5.87;;;6.00;99.90;;;;;;4164677;28;20686;-84
2022/02/03 10:47:23;;;;;;;12.23;5.13;;;6.00;99.90;;;;;;4162152;28;20469;-84
2022/02/03 10:49:59;;;;;;;14.13;5.67;;;6.00;99.90;;;;;;4159624;28;20472;-83
2022/02/03 10:54:49;;;;;;;16.47;6.00;;;6.10;99.90;;;;;;4100326;28;20463;-86
2022/02/03 10:57:16;;;;;;;11.97;5.37;;;6.00;99.90;;;;;;4142767;28;20503;-84
2022/02/03 11:02:01;;;;;;;16.27;5.50;;;6.10;99.90;;;;;;4133355;28;20448;-86
2022/02/03 11:04:33;;;;;;;17.40;5.77;;;6.10;99.90;;;;;;4160778;28;20571;-89
2022/02/03 11:06:41;;;;;;;17.13;5.97;;;6.50;99.90;;;;;;4162351;28;21050;-85
2022/02/03 11:08:48;;;;;;;16.00;5.87;;;6.60;99.90;;;;;;4164063;28;20542;-85
2022/02/03 11:10:57;;;;;;;14.40;5.20;;;6.10;99.90;;;;;;4161999;28;20475;-84
2022/02/03 11:12:59;;;;;;;13.77;5.93;;;6.10;99.90;;;;;;4162675;28;20593;-85
2022/02/03 11:15:01;;;;;;;18.93;5.40;;;6.10;99.90;;;;;;4141738;28;20484;-85
2022/02/03 11:17:04;;;;;;;14.47;6.00;;;6.10;99.90;;;;;;4133944;28;20831;-84
2022/02/03 11:19:10;;;;;;;14.73;5.67;;;6.20;99.90;;;;;;4133544;28;20578;-85
2022/02/03 11:21:17;;;;;;;12.03;5.30;;;6.20;99.90;;;;;;4134104;28;21215;-83
2022/02/03 11:23:31;;;;;;;11.10;5.27;;;6.30;99.90;;;;;;4142111;28;20551;-88
2022/02/03 11:25:52;;;;;;;12.97;5.40;;;6.30;99.90;;;;;;4147703;28;20476;-86
2022/02/03 11:28:17;;;;;;;14.67;5.53;;;6.50;99.90;;;;;;4156935;28;20480;-85
2022/02/03 11:32:56;;;;;;;11.97;5.23;;;6.40;99.90;;;;;;4152627;28;20639;-84
2022/02/03 11:54:32;;;;;;;10.87;5.10;;;6.90;99.90;;;;;;4151284;28;20534;-84
2022/02/03 11:57:16;;;;;;;15.07;5.87;;;7.00;99.90;;;;;;4151272;28;20523;-84
2022/02/03 12:00:22;;;;;;;12.43;5.40;;;7.10;99.90;;;;;;4139681;28;21172;-83
2022/02/03 12:05:02;;;;;;;10.43;5.10;;;7.20;99.90;;;;;;4110817;28;20469;-83
2022/02/03 12:07:32;;;;;;;11.50;5.30;;;7.20;99.90;;;;;;4153983;28;20480;-89
2022/02/03 12:12:38;;;;;;;13.73;5.80;;;7.30;99.90;;;;;;4150893;28;20819;-86
2022/02/03 12:19:58;;;;;;;10.77;5.33;;;7.40;99.90;;;;;;4148864;28;20465;-86
2022/02/03 12:22:08;;;;;;;11.57;5.50;;;7.40;99.90;;;;;;4150278;28;20484;-86
2022/02/03 12:24:22;;;;;;;12.53;5.20;;;7.40;99.90;;;;;;4146789;28;20597;-86
2022/02/03 12:26:30;;;;;;;9.33;4.47;;;7.50;99.90;;;;;;4158348;28;20521;-85
2022/02/03 12:28:39;;;;;;;9.77;4.33;;;7.60;99.90;;;;;;4152374;28;20699;-85
2022/02/03 12:31:03;;;;;;;12.03;4.67;;;7.50;99.90;;;;;;4155966;28;20840;-87
2022/02/03 12:37:01;;;;;;;9.07;4.33;;;7.50;99.90;;;;;;4152097;28;20572;-85
2022/02/03 12:38:29;;;;;;;8.30;3.97;;;7.70;99.90;;;;;;4150037;28;20464;-86
2022/02/03 12:40:51;;;;;;;10.77;4.37;;;7.70;99.90;;;;;;4149252;28;20474;-84
2022/02/03 12:42:56;;;;;;;9.07;4.70;;;7.80;99.90;;;;;;4155891;28;21015;-85
2022/02/03 12:45:14;;;;;;;7.03;4.27;;;7.70;99.90;;;;;;4150563;28;21060;-86
2022/02/03 12:47:15;;;;;;;8.37;4.27;;;7.60;99.90;;;;;;4151181;28;20465;-86
2022/02/03 12:49:21;;;;;;;8.90;4.10;;;7.70;99.90;;;;;;4149478;28;20469;-86
2022/02/03 12:51:25;;;;;;;8.20;4.10;;;7.70;99.90;;;;;;4158092;28;20673;-86
2022/02/03 12:53:32;;;;;;;8.63;3.80;;;7.60;99.90;;;;;;4153060;28;20493;-86
2022/02/03 12:55:36;;;;;;;7.00;3.50;;;7.60;99.90;;;;;;4156138;28;20848;-86
2022/02/03 12:57:38;;;;;;;6.93;3.67;;;7.60;99.90;;;;;;4150358;28;20470;-85
2022/02/03 12:59:40;;;;;;;11.33;4.17;;;7.60;99.90;;;;;;4151318;28;20480;-84
2022/02/03 13:01:45;;;;;;;7.60;4.20;;;7.60;99.90;;;;;;4149244;28;20964;-87
2022/02/03 13:03:50;;;;;;;6.23;3.70;;;7.60;99.90;;;;;;4148627;28;21137;-85
2022/02/03 13:05:53;;;;;;;8.50;4.00;;;7.60;99.90;;;;;;4149854;28;20473;-87
2022/02/03 13:07:59;;;;;;;8.73;3.47;;;7.60;99.90;;;;;;4148433;28;20476;-87
2022/02/03 13:10:10;;;;;;;7.47;4.17;;;7.60;99.90;;;;;;4150500;28;21085;-86
2022/02/03 13:12:18;;;;;;;8.63;4.13;;;7.60;99.90;;;;;;4155338;28;20483;-86
2022/02/03 13:14:27;;;;;;;6.90;4.00;;;7.60;99.90;;;;;;4144037;28;20500;-87
2022/02/03 13:16:30;;;;;;;6.57;3.60;;;7.60;99.90;;;;;;4147741;28;20472;-87
2022/02/03 13:18:35;;;;;;;8.80;4.10;;;7.60;99.90;;;;;;4149525;28;20489;-86
2022/02/03 13:20:43;;;;;;;5.80;3.47;;;7.60;99.90;;;;;;4151051;28;20552;-86
2022/02/03 13:22:52;;;;;;;5.30;3.40;;;7.60;99.90;;;;;;4149664;28;21060;-87
2022/02/03 13:25:13;;;;;;;7.00;3.53;;;7.60;99.90;;;;;;4144870;28;20461;-87
2022/02/03 13:27:20;;;;;;;8.97;3.50;;;7.60;99.90;;;;;;4148289;28;20908;-87
2022/02/03 13:29:28;;;;;;;7.67;3.43;;;7.60;99.90;;;;;;4147365;28;20576;-87
2022/02/03 13:31:44;;;;;;;7.00;3.27;;;7.60;99.90;;;;;;4143544;28;20464;-85
2022/02/03 13:33:59;;;;;;;5.77;2.90;;;7.60;99.90;;;;;;4143037;28;20504;-85
2022/02/03 13:36:09;;;;;;;6.07;3.50;;;7.60;99.90;;;;;;4138485;28;20987;-85
2022/02/03 13:38:21;;;;;;;6.80;3.40;;;7.60;99.90;;;;;;4146539;28;20488;-86
2022/02/03 13:40:27;;;;;;;5.33;3.23;;;7.60;99.90;;;;;;4145318;28;20477;-86
2022/02/03 13:42:31;;;;;;;4.60;2.83;;;7.60;99.90;;;;;;4146392;28;20497;-86
2022/02/03 13:44:33;;;;;;;5.43;3.17;;;7.50;99.90;;;;;;4136590;28;20700;-85
2022/02/03 13:46:37;;;;;;;4.70;2.90;;;7.60;99.90;;;;;;4140351;28;20466;-85
2022/02/03 13:48:40;;;;;;;6.33;3.20;;;7.60;99.90;;;;;;4143995;28;20488;-85
2022/02/03 13:50:51;;;;;;;6.90;3.67;;;7.60;99.90;;;;;;4141530;28;20560;-87
2022/02/03 13:52:59;;;;;;;7.07;3.30;;;7.60;99.90;;;;;;4135837;28;21132;-85
2022/02/03 14:15:00;;;;;;;5.50;3.03;;;7.70;99.90;;;;;;4119211;28;20501;-86
2022/02/03 14:20:05;;;;;;;6.20;2.93;;;7.70;99.90;;;;;;4134961;28;20461;-86
2022/02/03 14:22:08;;;;;;;4.67;2.90;;;7.60;99.90;;;;;;4139526;28;20469;-86
2022/02/03 14:26:59;;;;;;;6.87;3.17;;;8.30;99.90;;;;;;4123546;28;21162;-81
2022/02/03 14:29:05;;;;;;;6.07;3.33;;;7.70;99.90;;;;;;4128836;28;20467;-81
2022/02/03 14:31:09;;;;;;;7.00;3.37;;;7.70;99.90;;;;;;4130505;28;20477;-81
2022/02/03 14:33:14;;;;;;;6.40;3.67;;;8.10;99.90;;;;;;4124910;28;20592;-81
2022/02/03 14:35:15;;;;;;;6.43;3.63;;;7.80;99.90;;;;;;4126681;28;21163;-81
2022/02/03 14:37:27;;;;;;;7.10;4.00;;;7.70;99.90;;;;;;4128356;28;20462;-82
2022/02/03 14:39:43;;;;;;;7.17;4.00;;;7.60;99.90;;;;;;4124815;28;21075;-81
2022/02/03 14:41:47;;;;;;;9.23;4.20;;;7.60;99.90;;;;;;4125447;28;21056;-82
2022/02/03 14:43:49;;;;;;;5.97;3.37;;;7.60;99.90;;;;;;4133234;28;20599;-81
2022/02/03 14:45:51;;;;;;;7.47;4.27;;;7.60;99.90;;;;;;4129339;28;20605;-82
2022/02/03 14:47:54;;;;;;;8.37;4.40;;;7.60;99.90;;;;;;4134547;28;20481;-82
2022/02/03 14:50:00;;;;;;;6.63;4.20;;;7.60;99.90;;;;;;4129181;28;20474;-82
2022/02/03 14:52:12;;;;;;;9.60;4.67;;;7.60;99.90;;;;;;4129071;28;20475;-82
2022/02/03 14:58:01;;;;;;;8.17;4.20;;;7.60;99.90;;;;;;4148964;28;20510;-82
2022/02/03 14:59:01;;;;;;;7.80;3.73;;;7.50;99.90;;;;;;4162693;28;20445;-82
2022/02/03 15:01:04;;;;;;;8.87;4.27;;;7.50;99.90;;;;;;4162671;28;20536;-82
2022/02/03 15:03:07;;;;;;;6.10;3.80;;;7.50;99.90;;;;;;4158160;28;20230;-82
2022/02/03 15:05:12;;;;;;;8.00;4.33;;;7.50;99.90;;;;;;4158539;28;20879;-82
2022/02/03 15:07:14;;;;;;;6.80;4.07;;;7.50;99.90;;;;;;4159127;28;20470;-82
2022/02/03 15:09:31;;;;;;;6.37;3.67;;;7.50;99.90;;;;;;4156545;28;20473;-82
2022/02/03 15:11:54;;;;;;;8.63;3.80;;;7.50;99.90;;;;;;4159567;28;20464;-82
2022/02/03 15:13:56;;;;;;;6.63;4.17;;;7.50;99.90;;;;;;4155797;28;21202;-82
2022/02/03 15:15:59;;;;;;;6.70;4.27;;;7.60;99.90;;;;;;4155800;28;20461;-82
2022/02/03 15:18:01;;;;;;;7.63;4.27;;;7.60;99.90;;;;;;4183479;28;20463;-82
2022/02/03 15:20:05;;;;;;;8.10;4.33;;;7.90;99.90;;;;;;4190070;28;20464;-82
2022/02/03 15:22:07;;;;;;;9.77;4.80;;;7.50;99.90;;;;;;4190087;28;20506;-82
2022/02/03 15:24:10;;;;;;;7.47;3.73;;;7.50;99.90;;;;;;4184577;28;20488;-82
2022/02/03 15:26:11;;;;;;;7.40;3.97;;;7.50;99.90;;;;;;4186502;28;20517;-82
2022/02/03 15:28:13;;;;;;;9.27;3.87;;;7.50;99.90;;;;;;4188678;28;20537;-82
2022/02/03 15:30:16;;;;;;;6.97;3.63;;;7.50;99.90;;;;;;4172975;28;20483;-82
2022/02/03 15:32:20;;;;;;;6.53;3.77;;;7.50;99.90;;;;;;4191450;28;20456;-82
2022/02/03 15:34:22;;;;;;;7.87;4.03;;;7.50;99.90;;;;;;4191389;28;20487;-82
2022/02/03 15:36:26;;;;;;;6.53;3.93;;;7.50;99.90;;;;;;4191440;28;21334;-82
2022/02/03 15:38:33;;;;;;;6.57;3.40;;;7.50;99.90;;;;;;4190406;28;20472;-82
2022/02/03 15:40:36;;;;;;;5.70;3.70;;;7.50;99.90;;;;;;4192729;28;20468;-82
2022/02/03 15:42:50;;;;;;;5.83;3.97;;;8.00;99.90;;;;;;4191345;28;20466;-82
2022/02/03 15:44:54;;;;;;;7.50;3.97;;;7.50;99.90;;;;;;4191048;28;20471;-82
2022/02/03 15:47:03;;;;;;;7.30;4.40;;;7.50;99.90;;;;;;4191418;28;20506;-82
2022/02/03 15:49:15;;;;;;;9.40;4.13;;;7.50;99.90;;;;;;4190395;28;21003;-82
2022/02/03 15:56:25;;;;;;;5.70;3.50;;;7.50;99.90;;;;;;4189947;28;20471;-82
2022/02/03 16:03:24;;;;;;;6.43;3.73;;;7.40;99.90;;;;;;4188647;28;20579;-82
2022/02/03 16:17:03;;;;;;;6.40;3.27;;;7.40;99.90;;;;;;4167161;28;20990;-82
2022/02/03 16:19:05;;;;;;;6.53;3.00;;;7.40;99.90;;;;;;4165156;28;20475;-82
2022/02/03 16:21:16;;;;;;;5.70;2.90;;;7.40;99.90;;;;;;4164498;28;20480;-82
2022/02/03 16:23:44;;;;;;;5.50;2.80;;;7.40;99.90;;;;;;4168004;28;20607;-82
2022/02/03 16:52:38;;;;;;;5.00;3.27;;;7.30;99.90;;;;;;4075719;28;20544;-82
2022/02/03 16:54:40;;;;;;;4.10;2.50;;;7.60;99.90;;;;;;4163648;28;20531;-83
2022/02/03 16:56:43;;;;;;;4.83;2.60;;;7.30;99.90;;;;;;4170160;28;20467;-83
2022/02/03 16:58:46;;;;;;;5.93;3.13;;;7.30;99.90;;;;;;4167737;28;20567;-82
2022/02/03 17:00:48;;;;;;;4.30;2.70;;;7.20;99.90;;;;;;4171539;28;20474;-83
2022/02/03 17:02:51;;;;;;;4.23;2.70;;;7.20;99.90;;;;;;4174203;28;20491;-82
2022/02/03 17:04:56;;;;;;;5.23;3.20;;;7.30;99.90;;;;;;4169703;28;20476;-86
2022/02/03 17:06:58;;;;;;;5.80;3.30;;;7.50;99.90;;;;;;4170881;28;20520;-79
2022/02/03 17:09:00;;;;;;;5.20;3.40;;;7.20;99.90;;;;;;4165279;28;20584;-79
2022/02/03 17:11:02;;;;;;;4.47;3.00;;;7.20;99.90;;;;;;4172415;28;20522;-80
2022/02/03 17:13:03;;;;;;;5.73;3.20;;;7.20;99.90;;;;;;4168957;28;20560;-80